sensor_id;sensor_type;location;lat;lon;timestamp;pressure;altitude;pressure_sealevel;temperature;humidity
60897;BME280;46749;32.932;-117.130;2022-07-23T00:00:58;100902.09;;;21.28;54.50
60897;BME280;46749;32.932;-117.130;2022-07-23T00:03:25;100922.34;;;21.25;54.61
60897;BME280;46749;32.932;-117.130;2022-07-23T00:05:52;100910.91;;;21.21;54.61
60897;BME280;46749;32.932;-117.130;2022-07-23T00:08:18;100911.81;;;21.19;54.65
60897;BME280;46749;32.932;-117.130;2022-07-23T00:10:44;100913.56;;;21.18;55.05
60897;BME280;46749;32.932;-117.130;2022-07-23T00:13:10;100911.78;;;21.17;54.93
60897;BME280;46749;32.932;-117.130;2022-07-23T00:15:37;100907.41;;;21.16;55.08
60897;BME280;46749;32.932;-117.130;2022-07-23T00:18:03;100916.22;;;21.15;55.12
60897;BME280;46749;32.932;-117.130;2022-07-23T00:20:29;100898.59;;;21.17;54.94
60897;BME280;46749;32.932;-117.130;2022-07-23T00:22:55;100905.59;;;21.23;54.81
60897;BME280;46749;32.932;-117.130;2022-07-23T00:25:23;100904.72;;;21.30;54.72
60897;BME280;46749;32.932;-117.130;2022-07-23T00:27:49;100902.06;;;21.35;54.58
60897;BME280;46749;32.932;-117.130;2022-07-23T00:30:15;100900.28;;;21.37;54.48
60897;BME280;46749;32.932;-117.130;2022-07-23T00:33:03;100913.50;;;21.35;54.38
60897;BME280;46749;32.932;-117.130;2022-07-23T00:35:32;100904.72;;;21.30;54.70
60897;BME280;46749;32.932;-117.130;2022-07-23T00:38:00;100907.38;;;21.25;54.85
60897;BME280;46749;32.932;-117.130;2022-07-23T00:40:27;100906.47;;;21.23;54.87
60897;BME280;46749;32.932;-117.130;2022-07-23T00:42:53;100901.22;;;21.22;55.09
60897;BME280;46749;32.932;-117.130;2022-07-23T00:45:20;100902.97;;;21.27;55.07
60897;BME280;46749;32.932;-117.130;2022-07-23T00:47:46;100898.56;;;21.33;54.56
60897;BME280;46749;32.932;-117.130;2022-07-23T00:50:13;100902.03;;;21.41;54.41
60897;BME280;46749;32.932;-117.130;2022-07-23T00:52:40;100901.13;;;21.46;54.40
60897;BME280;46749;32.932;-117.130;2022-07-23T00:55:07;100908.16;;;21.50;54.45
60897;BME280;46749;32.932;-117.130;2022-07-23T00:57:34;100904.63;;;21.48;54.40
60897;BME280;46749;32.932;-117.130;2022-07-23T01:00:00;100899.38;;;21.42;54.39
60897;BME280;46749;32.932;-117.130;2022-07-23T01:02:27;100905.56;;;21.37;54.33
60897;BME280;46749;32.932;-117.130;2022-07-23T01:04:54;100907.38;;;21.30;54.73
60897;BME280;46749;32.932;-117.130;2022-07-23T01:07:20;100902.97;;;21.26;54.61
60897;BME280;46749;32.932;-117.130;2022-07-23T01:09:47;100910.00;;;21.24;54.81
60897;BME280;46749;32.932;-117.130;2022-07-23T01:12:14;100903.88;;;21.20;55.02
60897;BME280;46749;32.932;-117.130;2022-07-23T01:14:40;100903.00;;;21.18;54.92
60897;BME280;46749;32.932;-117.130;2022-07-23T01:17:06;100906.53;;;21.16;55.00
60897;BME280;46749;32.932;-117.130;2022-07-23T01:19:33;100895.09;;;21.15;55.11
60897;BME280;46749;32.932;-117.130;2022-07-23T01:22:02;100896.81;;;21.21;55.04
60897;BME280;46749;32.932;-117.130;2022-07-23T01:24:29;100897.69;;;21.29;54.82
60897;BME280;46749;32.932;-117.130;2022-07-23T01:26:55;100894.13;;;21.36;54.64
60897;BME280;46749;32.932;-117.130;2022-07-23T01:29:21;100893.22;;;21.40;54.67
60897;BME280;46749;32.932;-117.130;2022-07-23T01:31:48;100880.06;;;21.37;54.40
60897;BME280;46749;32.932;-117.130;2022-07-23T01:34:14;100877.44;;;21.30;54.62
60897;BME280;46749;32.932;-117.130;2022-07-23T01:36:40;100873.91;;;21.24;54.69
60897;BME280;46749;32.932;-117.130;2022-07-23T01:39:07;100872.19;;;21.20;54.97
60897;BME280;46749;32.932;-117.130;2022-07-23T01:41:34;100867.78;;;21.16;55.13
60897;BME280;46749;32.932;-117.130;2022-07-23T01:44:01;100866.03;;;21.14;55.10
60897;BME280;46749;32.932;-117.130;2022-07-23T01:46:27;100861.63;;;21.20;55.16
60897;BME280;46749;32.932;-117.130;2022-07-23T01:48:53;100865.13;;;21.28;54.98
60897;BME280;46749;32.932;-117.130;2022-07-23T01:51:19;100866.84;;;21.36;54.79
60897;BME280;46749;32.932;-117.130;2022-07-23T01:53:45;100869.47;;;21.40;54.81
60897;BME280;46749;32.932;-117.130;2022-07-23T01:56:11;100864.16;;;21.42;54.83
60897;BME280;46749;32.932;-117.130;2022-07-23T01:58:37;100867.72;;;21.38;54.77
60897;BME280;46749;32.932;-117.130;2022-07-23T02:01:04;100860.69;;;21.34;54.66
60897;BME280;46749;32.932;-117.130;2022-07-23T02:03:30;100856.28;;;21.30;55.03
60897;BME280;46749;32.932;-117.130;2022-07-23T02:05:56;100860.69;;;21.27;54.74
60897;BME280;46749;32.932;-117.130;2022-07-23T02:08:22;100866.88;;;21.26;54.94
60897;BME280;46749;32.932;-117.130;2022-07-23T02:10:48;100863.31;;;21.24;55.03
60897;BME280;46749;32.932;-117.130;2022-07-23T02:13:17;100868.59;;;21.24;55.34
60897;BME280;46749;32.932;-117.130;2022-07-23T02:15:44;100866.00;;;21.26;55.46
60897;BME280;46749;32.932;-117.130;2022-07-23T02:18:10;100873.91;;;21.24;55.52
60897;BME280;46749;32.932;-117.130;2022-07-23T02:20:36;100870.38;;;21.30;55.56
60897;BME280;46749;32.932;-117.130;2022-07-23T02:23:04;100872.09;;;21.42;55.33
60897;BME280;46749;32.932;-117.130;2022-07-23T02:25:31;100865.88;;;21.50;55.21
60897;BME280;46749;32.932;-117.130;2022-07-23T02:27:57;100864.06;;;21.59;55.11
60897;BME280;46749;32.932;-117.130;2022-07-23T02:30:23;100867.56;;;21.64;54.96
60897;BME280;46749;32.932;-117.130;2022-07-23T02:32:49;100866.69;;;21.60;54.90
60897;BME280;46749;32.932;-117.130;2022-07-23T02:35:15;100872.00;;;21.54;55.03
60897;BME280;46749;32.932;-117.130;2022-07-23T02:37:41;100865.88;;;21.50;54.96
60897;BME280;46749;32.932;-117.130;2022-07-23T02:40:08;100872.03;;;21.48;55.24
60897;BME280;46749;32.932;-117.130;2022-07-23T02:42:34;100867.66;;;21.45;55.46
60897;BME280;46749;32.932;-117.130;2022-07-23T02:45:00;100869.41;;;21.46;55.67
60897;BME280;46749;32.932;-117.130;2022-07-23T02:47:26;100864.97;;;21.56;55.44
60897;BME280;46749;32.932;-117.130;2022-07-23T02:49:52;100865.78;;;21.64;55.07
60897;BME280;46749;32.932;-117.130;2022-07-23T02:52:18;100869.25;;;21.72;54.88
60897;BME280;46749;32.932;-117.130;2022-07-23T02:54:45;100870.06;;;21.79;54.69
60897;BME280;46749;32.932;-117.130;2022-07-23T02:57:11;100866.56;;;21.78;54.94
60897;BME280;46749;32.932;-117.130;2022-07-23T02:59:37;100868.34;;;21.73;55.01
60897;BME280;46749;32.932;-117.130;2022-07-23T03:02:03;100870.16;;;21.68;54.93
60897;BME280;46749;32.932;-117.130;2022-07-23T03:04:29;100875.47;;;21.62;55.16
60897;BME280;46749;32.932;-117.130;2022-07-23T03:06:55;100870.22;;;21.59;55.26
60897;BME280;46749;32.932;-117.130;2022-07-23T03:09:21;100872.88;;;21.58;55.47
60897;BME280;46749;32.932;-117.130;2022-07-23T03:11:47;100878.19;;;21.56;55.39
60897;BME280;46749;32.932;-117.130;2022-07-23T03:14:13;100870.25;;;21.53;55.63
60897;BME280;46749;32.932;-117.130;2022-07-23T03:16:42;100887.00;;;21.53;55.46
60897;BME280;46749;32.932;-117.130;2022-07-23T03:19:08;100881.72;;;21.53;55.70
60897;BME280;46749;32.932;-117.130;2022-07-23T03:21:54;100881.66;;;21.63;55.66
60897;BME280;46749;32.932;-117.130;2022-07-23T03:24:20;100878.94;;;21.73;55.22
60897;BME280;46749;32.932;-117.130;2022-07-23T03:26:46;100878.84;;;21.84;55.12
60897;BME280;46749;32.932;-117.130;2022-07-23T03:29:13;100877.91;;;21.91;55.18
60897;BME280;46749;32.932;-117.130;2022-07-23T03:31:39;100876.16;;;21.90;55.02
60897;BME280;46749;32.932;-117.130;2022-07-23T03:34:05;100882.38;;;21.85;55.00
60897;BME280;46749;32.932;-117.130;2022-07-23T03:36:31;100876.25;;;21.78;55.12
60897;BME280;46749;32.932;-117.130;2022-07-23T03:38:57;100871.88;;;21.72;55.18
60897;BME280;46749;32.932;-117.130;2022-07-23T03:41:23;100878.97;;;21.70;55.41
60897;BME280;46749;32.932;-117.130;2022-07-23T03:43:49;100871.06;;;21.66;55.55
60897;BME280;46749;32.932;-117.130;2022-07-23T03:46:15;100868.38;;;21.70;55.64
60897;BME280;46749;32.932;-117.130;2022-07-23T03:48:42;100873.63;;;21.78;55.41
60897;BME280;46749;32.932;-117.130;2022-07-23T03:51:08;100881.50;;;21.84;54.97
60897;BME280;46749;32.932;-117.130;2022-07-23T03:53:34;100885.88;;;21.90;54.80
60897;BME280;46749;32.932;-117.130;2022-07-23T03:56:00;100886.72;;;21.93;54.50
60897;BME280;46749;32.932;-117.130;2022-07-23T03:58:26;100887.63;;;21.94;54.49
60897;BME280;46749;32.932;-117.130;2022-07-23T04:00:52;100893.81;;;21.85;54.80
60897;BME280;46749;32.932;-117.130;2022-07-23T04:03:18;100893.00;;;21.77;54.87
60897;BME280;46749;32.932;-117.130;2022-07-23T04:05:44;100892.16;;;21.72;55.00
60897;BME280;46749;32.932;-117.130;2022-07-23T04:08:10;100886.91;;;21.66;55.08
60897;BME280;46749;32.932;-117.130;2022-07-23T04:10:37;100893.09;;;21.62;54.78
60897;BME280;46749;32.932;-117.130;2022-07-23T04:13:03;100900.19;;;21.58;55.23
60897;BME280;46749;32.932;-117.130;2022-07-23T04:15:29;100905.47;;;21.55;55.25
60897;BME280;46749;32.932;-117.130;2022-07-23T04:17:55;100899.34;;;21.53;55.19
60897;BME280;46749;32.932;-117.130;2022-07-23T04:20:21;100900.19;;;21.55;55.37
60897;BME280;46749;32.932;-117.130;2022-07-23T04:22:47;100900.16;;;21.61;55.12
60897;BME280;46749;32.932;-117.130;2022-07-23T04:25:13;100901.88;;;21.71;54.92
60897;BME280;46749;32.932;-117.130;2022-07-23T04:27:42;100897.44;;;21.76;54.74
60897;BME280;46749;32.932;-117.130;2022-07-23T04:30:08;100895.63;;;21.80;54.34
60897;BME280;46749;32.932;-117.130;2022-07-23T04:32:35;100903.59;;;21.77;54.39
60897;BME280;46749;32.932;-117.130;2022-07-23T04:35:01;100910.69;;;21.70;54.57
60897;BME280;46749;32.932;-117.130;2022-07-23T04:37:28;100914.25;;;21.63;54.80
60897;BME280;46749;32.932;-117.130;2022-07-23T04:39:54;100910.75;;;21.58;55.06
60897;BME280;46749;32.932;-117.130;2022-07-23T04:42:20;100914.28;;;21.54;54.92
60897;BME280;46749;32.932;-117.130;2022-07-23T04:44:46;100914.31;;;21.51;55.10
60897;BME280;46749;32.932;-117.130;2022-07-23T04:47:12;100917.78;;;21.59;55.04
60897;BME280;46749;32.932;-117.130;2022-07-23T04:49:38;100921.25;;;21.67;54.59
60897;BME280;46749;32.932;-117.130;2022-07-23T04:52:04;100918.59;;;21.75;54.49
60897;BME280;46749;32.932;-117.130;2022-07-23T04:54:31;100919.47;;;21.75;54.39
60897;BME280;46749;32.932;-117.130;2022-07-23T04:56:57;100910.69;;;21.69;54.29
60897;BME280;46749;32.932;-117.130;2022-07-23T04:59:23;100915.13;;;21.61;54.64
60897;BME280;46749;32.932;-117.130;2022-07-23T05:01:49;100919.59;;;21.54;54.76
60897;BME280;46749;32.932;-117.130;2022-07-23T05:04:15;100908.16;;;21.49;54.81
60897;BME280;46749;32.932;-117.130;2022-07-23T05:06:41;100914.34;;;21.45;55.09
60897;BME280;46749;32.932;-117.130;2022-07-23T05:09:07;100920.50;;;21.42;54.96
60897;BME280;46749;32.932;-117.130;2022-07-23T05:11:33;100919.69;;;21.39;55.07
60897;BME280;46749;32.932;-117.130;2022-07-23T05:14:00;100920.53;;;21.36;55.28
60897;BME280;46749;32.932;-117.130;2022-07-23T08:14:24;100893.50;;;20.62;55.18
60897;BME280;46749;32.932;-117.130;2022-07-23T08:16:51;100886.44;;;20.70;54.83
60897;BME280;46749;32.932;-117.130;2022-07-23T08:19:17;100887.31;;;20.76;54.48
60897;BME280;46749;32.932;-117.130;2022-07-23T08:21:43;100881.16;;;20.81;54.36
60897;BME280;46749;32.932;-117.130;2022-07-23T08:24:09;100888.16;;;20.79;54.67
60897;BME280;46749;32.932;-117.130;2022-07-23T08:26:35;100889.97;;;20.71;54.52
60897;BME280;46749;32.932;-117.130;2022-07-23T08:29:01;100882.06;;;20.63;54.71
60897;BME280;46749;32.932;-117.130;2022-07-23T08:31:28;100879.44;;;20.57;54.71
60897;BME280;46749;32.932;-117.130;2022-07-23T08:33:54;100889.13;;;20.52;54.54
60897;BME280;46749;32.932;-117.130;2022-07-23T08:36:20;100888.25;;;20.47;54.65
60897;BME280;46749;32.932;-117.130;2022-07-23T08:38:46;100882.94;;;20.44;54.90
60897;BME280;46749;32.932;-117.130;2022-07-23T08:41:12;100876.78;;;20.40;54.73
60897;BME280;46749;32.932;-117.130;2022-07-23T08:43:40;100879.44;;;20.39;54.89
60897;BME280;46749;32.932;-117.130;2022-07-23T08:46:06;100880.31;;;20.41;55.38
60897;BME280;46749;32.932;-117.130;2022-07-23T08:48:34;100876.81;;;20.48;55.02
60897;BME280;46749;32.932;-117.130;2022-07-23T08:51:03;100875.91;;;20.55;54.43
60897;BME280;46749;32.932;-117.130;2022-07-23T08:53:32;100866.25;;;20.62;54.57
60897;BME280;46749;32.932;-117.130;2022-07-23T08:56:03;100872.38;;;20.67;54.06
60897;BME280;46749;32.932;-117.130;2022-07-23T08:58:30;100865.31;;;20.70;54.36
60897;BME280;46749;32.932;-117.130;2022-07-23T09:00:57;100867.09;;;20.71;54.20
60897;BME280;46749;32.932;-117.130;2022-07-23T09:03:28;100859.16;;;20.71;54.04
60897;BME280;46749;32.932;-117.130;2022-07-23T09:05:55;100859.22;;;20.62;54.04
60897;BME280;46749;32.932;-117.130;2022-07-23T09:08:25;100857.44;;;20.55;54.13
60897;BME280;46749;32.932;-117.130;2022-07-23T09:10:54;100861.88;;;20.45;54.49
60897;BME280;46749;32.932;-117.130;2022-07-23T09:13:29;100865.38;;;20.40;54.29
60897;BME280;46749;32.932;-117.130;2022-07-23T09:15:59;100865.34;;;20.35;54.82
60897;BME280;46749;32.932;-117.130;2022-07-23T09:18:38;100867.16;;;20.32;55.00
60897;BME280;46749;32.932;-117.130;2022-07-23T09:21:09;100875.91;;;20.34;55.13
60897;BME280;46749;32.932;-117.130;2022-07-23T09:23:43;100881.19;;;20.40;54.83
60897;BME280;46749;32.932;-117.130;2022-07-23T09:31:44;100898.78;;;20.53;54.12
60897;BME280;46749;32.932;-117.130;2022-07-23T09:34:26;100903.19;;;20.53;54.20
60897;BME280;46749;32.932;-117.130;2022-07-23T09:36:54;100898.78;;;20.44;54.25
60897;BME280;46749;32.932;-117.130;2022-07-23T09:39:29;100899.69;;;20.37;54.12
60897;BME280;46749;32.932;-117.130;2022-07-23T09:41:56;100896.16;;;20.30;54.40
60897;BME280;46749;32.932;-117.130;2022-07-23T09:44:22;100897.94;;;20.25;54.74
60897;BME280;46749;32.932;-117.130;2022-07-23T09:46:50;100899.66;;;20.28;54.94
60897;BME280;46749;32.932;-117.130;2022-07-23T09:49:23;100902.31;;;20.37;54.88
60897;BME280;46749;32.932;-117.130;2022-07-23T09:51:56;100898.75;;;20.42;54.34
60897;BME280;46749;32.932;-117.130;2022-07-23T09:56:56;100899.69;;;20.51;54.06
60897;BME280;46749;32.932;-117.130;2022-07-23T09:59:26;100911.09;;;20.48;53.74
60897;BME280;46749;32.932;-117.130;2022-07-23T10:01:54;100906.69;;;20.39;53.93
60897;BME280;46749;32.932;-117.130;2022-07-23T10:04:23;100912.88;;;20.31;54.06
60897;BME280;46749;32.932;-117.130;2022-07-23T10:06:56;100908.47;;;20.25;54.19
60897;BME280;46749;32.932;-117.130;2022-07-23T10:09:40;100900.56;;;20.19;54.39
60897;BME280;46749;32.932;-117.130;2022-07-23T10:12:13;100910.22;;;20.15;54.69
60897;BME280;46749;32.932;-117.130;2022-07-23T10:14:59;100906.72;;;20.19;54.83
60897;BME280;46749;32.932;-117.130;2022-07-23T10:17:30;100915.50;;;20.26;54.30
60897;BME280;46749;32.932;-117.130;2022-07-23T10:19:56;100911.97;;;20.32;54.23
60897;BME280;46749;32.932;-117.130;2022-07-23T10:22:42;100907.59;;;20.37;54.45
60897;BME280;46749;32.932;-117.130;2022-07-23T10:28:12;100905.81;;;20.28;54.28
60897;BME280;46749;32.932;-117.130;2022-07-23T10:36:32;100918.13;;;20.08;54.66
60897;BME280;46749;32.932;-117.130;2022-07-23T10:39:13;100920.75;;;20.02;54.49
60897;BME280;46749;32.932;-117.130;2022-07-23T10:41:42;100920.78;;;20.00;55.16
60897;BME280;46749;32.932;-117.130;2022-07-23T10:44:12;100918.13;;;20.08;54.84
60897;BME280;46749;32.932;-117.130;2022-07-23T10:49:33;100917.25;;;20.26;54.53
60897;BME280;46749;32.932;-117.130;2022-07-23T10:54:57;100919.00;;;20.20;54.39
60897;BME280;46749;32.932;-117.130;2022-07-23T10:57:49;100908.47;;;20.11;54.62
60897;BME280;46749;32.932;-117.130;2022-07-23T11:00:26;100904.06;;;20.04;54.75
60897;BME280;46749;32.932;-117.130;2022-07-23T11:02:59;100911.09;;;19.99;54.96
60897;BME280;46749;32.932;-117.130;2022-07-23T11:05:45;100904.06;;;19.95;54.99
60897;BME280;46749;32.932;-117.130;2022-07-23T11:08:14;100891.75;;;19.91;54.61
60897;BME280;46749;32.932;-117.130;2022-07-23T11:10:47;100906.69;;;19.89;54.88
60897;BME280;46749;32.932;-117.130;2022-07-23T11:31:58;100903.19;;;20.04;54.46
60897;BME280;46749;32.932;-117.130;2022-07-23T11:34:31;100905.81;;;19.96;54.44
60897;BME280;46749;32.932;-117.130;2022-07-23T11:36:59;100900.53;;;19.90;54.54
60897;BME280;46749;32.932;-117.130;2022-07-23T11:39:26;100900.53;;;19.84;54.96
60897;BME280;46749;32.932;-117.130;2022-07-23T11:41:53;100900.53;;;19.81;54.97
60897;BME280;46749;32.932;-117.130;2022-07-23T11:44:27;100897.88;;;19.78;54.77
60897;BME280;46749;32.932;-117.130;2022-07-23T11:46:57;100895.25;;;19.78;55.18
60897;BME280;46749;32.932;-117.130;2022-07-23T11:49:24;100899.66;;;19.85;54.77
60897;BME280;46749;32.932;-117.130;2022-07-23T11:54:35;100899.66;;;19.97;54.23
60897;BME280;46749;32.932;-117.130;2022-07-23T11:57:02;100894.41;;;19.92;54.27
60897;BME280;46749;32.932;-117.130;2022-07-23T11:59:33;100903.19;;;19.87;54.59
60897;BME280;46749;32.932;-117.130;2022-07-23T12:02:01;100891.75;;;19.80;54.91
60897;BME280;46749;32.932;-117.130;2022-07-23T12:04:42;100899.66;;;19.76;54.86
60897;BME280;46749;32.932;-117.130;2022-07-23T12:12:47;100914.56;;;19.64;55.23
60897;BME280;46749;32.932;-117.130;2022-07-23T12:15:16;100917.19;;;19.63;54.97
60897;BME280;46749;32.932;-117.130;2022-07-23T12:17:45;100918.03;;;19.60;55.24
60897;BME280;46749;32.932;-117.130;2022-07-23T12:20:20;100916.31;;;19.62;55.09
60897;BME280;46749;32.932;-117.130;2022-07-23T12:22:48;100913.69;;;19.70;55.15
60897;BME280;46749;32.932;-117.130;2022-07-23T12:25:17;100916.31;;;19.79;54.50
60897;BME280;46749;32.932;-117.130;2022-07-23T12:27:44;100918.97;;;19.85;54.59
60897;BME280;46749;32.932;-117.130;2022-07-23T12:30:23;100914.59;;;19.83;54.70
60897;BME280;46749;32.932;-117.130;2022-07-23T12:32:52;100926.00;;;19.77;54.49
60897;BME280;46749;32.932;-117.130;2022-07-23T12:35:19;100922.47;;;19.71;54.76
60897;BME280;46749;32.932;-117.130;2022-07-23T12:37:47;100913.69;;;19.65;54.73
60897;BME280;46749;32.932;-117.130;2022-07-23T12:40:28;100913.66;;;19.59;55.05
60897;BME280;46749;32.932;-117.130;2022-07-23T12:43:01;100925.03;;;19.57;54.86
60897;BME280;46749;32.932;-117.130;2022-07-23T12:45:41;100932.06;;;19.53;55.18
60897;BME280;46749;32.932;-117.130;2022-07-23T12:48:08;100932.09;;;19.61;55.05
60897;BME280;46749;32.932;-117.130;2022-07-23T12:50:55;100930.38;;;19.71;54.99
60897;BME280;46749;32.932;-117.130;2022-07-23T12:53:31;100926.88;;;19.78;54.63
60897;BME280;46749;32.932;-117.130;2022-07-23T12:56:02;100942.69;;;19.75;54.69
60897;BME280;46749;32.932;-117.130;2022-07-23T13:01:07;100942.66;;;19.62;54.84
60897;BME280;46749;32.932;-117.130;2022-07-23T13:03:40;100938.28;;;19.72;54.55
60897;BME280;46749;32.932;-117.130;2022-07-23T13:06:10;100944.44;;;19.79;54.44
60897;BME280;46749;32.932;-117.130;2022-07-23T13:08:38;100941.84;;;19.80;54.19
60897;BME280;46749;32.932;-117.130;2022-07-23T13:11:06;100947.97;;;19.75;54.32
60897;BME280;46749;32.932;-117.130;2022-07-23T13:13:34;100955.81;;;19.67;54.54
60897;BME280;46749;32.932;-117.130;2022-07-23T13:16:01;100952.28;;;19.60;54.73
60897;BME280;46749;32.932;-117.130;2022-07-23T13:18:28;100954.03;;;19.55;54.89
60897;BME280;46749;32.932;-117.130;2022-07-23T13:20:54;100957.53;;;19.56;54.98
60897;BME280;46749;32.932;-117.130;2022-07-23T13:23:21;100951.44;;;19.61;54.50
60897;BME280;46749;32.932;-117.130;2022-07-23T13:25:48;100961.13;;;19.69;54.42
60897;BME280;46749;32.932;-117.130;2022-07-23T13:28:16;100969.88;;;19.64;54.55
60897;BME280;46749;32.932;-117.130;2022-07-23T13:30:43;100955.81;;;19.58;54.68
60897;BME280;46749;32.932;-117.130;2022-07-23T13:33:10;100961.91;;;19.52;54.95
60897;BME280;46749;32.932;-117.130;2022-07-23T13:35:37;100963.63;;;19.47;54.90
60897;BME280;46749;32.932;-117.130;2022-07-23T13:38:05;100971.53;;;19.44;54.83
60897;BME280;46749;32.932;-117.130;2022-07-23T13:40:34;100974.16;;;19.41;54.89
60897;BME280;46749;32.932;-117.130;2022-07-23T13:43:02;100974.16;;;19.38;54.70
60897;BME280;46749;32.932;-117.130;2022-07-23T13:45:28;100975.88;;;19.34;54.99
60897;BME280;46749;32.932;-117.130;2022-07-23T13:47:54;100986.44;;;19.39;55.36
60897;BME280;46749;32.932;-117.130;2022-07-23T13:50:20;100994.38;;;19.47;55.09
60897;BME280;46749;32.932;-117.130;2022-07-23T13:52:46;100991.75;;;19.54;54.99
60897;BME280;46749;32.932;-117.130;2022-07-23T13:55:13;100992.69;;;19.58;54.68
60897;BME280;46749;32.932;-117.130;2022-07-23T13:57:39;100994.41;;;19.54;54.38
60897;BME280;46749;32.932;-117.130;2022-07-23T14:00:07;101000.53;;;19.47;54.56
60897;BME280;46749;32.932;-117.130;2022-07-23T14:02:36;101007.50;;;19.40;55.01
60897;BME280;46749;32.932;-117.130;2022-07-23T14:05:05;101008.41;;;19.36;54.96
60897;BME280;46749;32.932;-117.130;2022-07-23T14:07:33;101002.22;;;19.33;55.11
60897;BME280;46749;32.932;-117.130;2022-07-23T14:09:59;101004.84;;;19.30;55.13
60897;BME280;46749;32.932;-117.130;2022-07-23T14:12:25;101009.22;;;19.28;54.87
60897;BME280;46749;32.932;-117.130;2022-07-23T14:14:52;101003.94;;;19.25;55.26
60897;BME280;46749;32.932;-117.130;2022-07-23T14:17:18;101003.91;;;19.23;55.18
60897;BME280;46749;32.932;-117.130;2022-07-23T14:19:44;100999.56;;;19.24;55.38
60897;BME280;46749;32.932;-117.130;2022-07-23T14:22:10;101003.09;;;19.32;54.94
60897;BME280;46749;32.932;-117.130;2022-07-23T14:24:37;101016.28;;;19.39;55.11
60897;BME280;46749;32.932;-117.130;2022-07-23T14:27:04;101004.03;;;19.45;54.55
60897;BME280;46749;32.932;-117.130;2022-07-23T14:29:30;101007.50;;;19.42;54.59
60897;BME280;46749;32.932;-117.130;2022-07-23T14:31:57;101015.41;;;19.36;54.86
60897;BME280;46749;32.932;-117.130;2022-07-23T14:34:24;101014.50;;;19.31;54.71
60897;BME280;46749;32.932;-117.130;2022-07-23T14:36:51;101005.69;;;19.27;54.74
60897;BME280;46749;32.932;-117.130;2022-07-23T14:39:17;101007.44;;;19.24;55.27
60897;BME280;46749;32.932;-117.130;2022-07-23T14:41:43;101008.28;;;19.20;55.13
60897;BME280;46749;32.932;-117.130;2022-07-23T14:44:09;101008.28;;;19.18;55.04
60897;BME280;46749;32.932;-117.130;2022-07-23T14:46:36;101011.81;;;19.17;55.36
60897;BME280;46749;32.932;-117.130;2022-07-23T14:49:03;101010.97;;;19.24;55.04
60897;BME280;46749;32.932;-117.130;2022-07-23T14:51:29;101018.03;;;19.33;55.11
60897;BME280;46749;32.932;-117.130;2022-07-23T14:53:55;101022.44;;;19.38;54.81
60897;BME280;46749;32.932;-117.130;2022-07-23T14:56:22;101020.69;;;19.36;54.81
60897;BME280;46749;32.932;-117.130;2022-07-23T14:58:48;101019.78;;;19.31;55.04
60897;BME280;46749;32.932;-117.130;2022-07-23T15:01:14;101019.75;;;19.25;54.78
60897;BME280;46749;32.932;-117.130;2022-07-23T15:03:40;101017.06;;;19.20;54.85
60897;BME280;46749;32.932;-117.130;2022-07-23T15:06:07;101016.16;;;19.17;54.79
60897;BME280;46749;32.932;-117.130;2022-07-23T15:08:33;101019.66;;;19.14;55.14
60897;BME280;46749;32.932;-117.130;2022-07-23T15:10:59;101017.03;;;19.11;55.02
60897;BME280;46749;32.932;-117.130;2022-07-23T15:13:25;101021.38;;;19.09;55.00
60897;BME280;46749;32.932;-117.130;2022-07-23T15:15:51;101021.38;;;19.07;55.08
60897;BME280;46749;32.932;-117.130;2022-07-23T15:18:18;101017.88;;;19.05;55.21
60897;BME280;46749;32.932;-117.130;2022-07-23T15:20:44;101025.78;;;19.08;55.48
60897;BME280;46749;32.932;-117.130;2022-07-23T15:23:10;101022.31;;;19.16;55.08
60897;BME280;46749;32.932;-117.130;2022-07-23T15:25:37;101018.00;;;19.24;54.91
60897;BME280;46749;32.932;-117.130;2022-07-23T15:28:04;101029.41;;;19.27;54.89
60897;BME280;46749;32.932;-117.130;2022-07-23T15:30:30;101028.47;;;19.22;54.73
60897;BME280;46749;32.932;-117.130;2022-07-23T15:32:56;101029.31;;;19.17;55.08
60897;BME280;46749;32.932;-117.130;2022-07-23T15:35:23;101036.34;;;19.13;54.81
60897;BME280;46749;32.932;-117.130;2022-07-23T15:37:49;101036.31;;;19.10;55.07
60897;BME280;46749;32.932;-117.130;2022-07-23T15:40:15;101022.25;;;19.09;55.25
60897;BME280;46749;32.932;-117.130;2022-07-23T15:42:41;101034.59;;;19.17;54.99
60897;BME280;46749;32.932;-117.130;2022-07-23T15:45:08;101030.25;;;19.22;55.07
60897;BME280;46749;32.932;-117.130;2022-07-23T15:47:34;101040.78;;;19.23;54.99
60897;BME280;46749;32.932;-117.130;2022-07-23T15:50:00;101045.19;;;19.26;54.91
60897;BME280;46749;32.932;-117.130;2022-07-23T15:52:27;101029.41;;;19.29;54.85
60897;BME280;46749;32.932;-117.130;2022-07-23T15:54:53;101029.41;;;19.24;54.58
60897;BME280;46749;32.932;-117.130;2022-07-23T15:57:19;101026.72;;;19.18;54.94
60897;BME280;46749;32.932;-117.130;2022-07-23T15:59:45;101031.97;;;19.12;54.74
60897;BME280;46749;32.932;-117.130;2022-07-23T16:02:11;101036.31;;;19.08;54.81
60897;BME280;46749;32.932;-117.130;2022-07-23T16:04:37;101033.63;;;19.04;55.09
60897;BME280;46749;32.932;-117.130;2022-07-23T16:07:03;101041.53;;;19.01;55.25
60897;BME280;46749;32.932;-117.130;2022-07-23T16:09:30;101045.03;;;18.98;55.14
60897;BME280;46749;32.932;-117.130;2022-07-23T16:11:56;101046.75;;;18.96;55.35
60897;BME280;46749;32.932;-117.130;2022-07-23T16:14:22;101036.22;;;18.96;55.51